首页
METAR-TAF:

METAR-TAF

机场 :

拉罗汤加国际机场

拉罗汤加岛, 库克群岛

纬度: 21-12S, 经度: 159-49W, 海拔: 7米

当前天气观测

该预报发布于30分钟前的20:00 UTC
风速7节,风向
温度 25°C
湿度 79%
气压 1017 hPa
能见度10公里或以上
散云层高于1800英尺
多云层高于4500英尺
多云层高于10000英尺

METAR: NCRG 172000Z COR 08007KT 9999 SCT018 BKN045 BKN100 25/21 Q1017

时间: 10:30 (20:30 UTC)

预报

该预报发布于3小时和24分钟前的17:06 UTC
预报有效从17日的 18点(UTC)到 18日的 18点(UTC)
风速5节,风向南转南东
能见度10公里或以上
散云层高于1600英尺
阴天层高于4000英尺
短暂存在
从 17日的 12点(UTC)到 18日的 18点(UTC)
能見度: 8000
多云层高于1600英尺
阵雨

TAF: NCRG 171706Z 1718/1818 15005KT 9999 SCT016 OVC040 TEMPO 1712/1818 8000 SHRA BKN016

超过4000个机场的气象观测和天气预报(METAR&TAF报告)。

可查询的气象台以黄色和红色小点在地图上表示。

将鼠标移到小点上方,可查看气象台名称。

然后点击查看天气观测和预报。

如需切换地图:点击带黑十字的绿色按钮放大地图;点击带横线的绿色按钮缩小地图;或者点击绿色箭头查看邻近地区的地图。


METAR-TAF: